createdAt,value
2023-05-14T00:01:54.137Z,13.65
2023-05-14T00:05:20.994Z,13.62
2023-05-14T00:08:47.809Z,13.55
2023-05-14T00:12:14.870Z,13.47
2023-05-14T00:15:41.426Z,13.41
2023-05-14T00:19:08.757Z,13.36
2023-05-14T00:22:37.513Z,13.28
2023-05-14T00:26:10.604Z,13.17
2023-05-14T00:29:40.167Z,13.06
2023-05-14T00:33:07.440Z,13.00
2023-05-14T00:36:34.292Z,12.91
2023-05-14T00:40:01.242Z,12.83
2023-05-14T00:43:27.975Z,12.78
2023-05-14T00:46:56.529Z,12.73
2023-05-14T00:50:24.594Z,12.69
2023-05-14T00:53:56.311Z,12.66
2023-05-14T00:57:23.628Z,12.61
2023-05-14T01:00:50.871Z,12.54
2023-05-14T01:04:19.225Z,12.47
2023-05-14T01:07:56.714Z,12.40
2023-05-14T01:11:31.246Z,12.34
2023-05-14T01:15:06.000Z,12.28
2023-05-14T01:18:35.279Z,12.22
2023-05-14T01:22:01.823Z,12.14
2023-05-14T01:25:28.959Z,12.08
2023-05-14T01:28:58.830Z,12.02
2023-05-14T01:32:26.948Z,11.97
2023-05-14T01:35:54.830Z,11.89
2023-05-14T01:39:22.109Z,11.85
2023-05-14T01:42:52.084Z,11.79
2023-05-14T01:46:21.236Z,11.77
2023-05-14T01:49:47.947Z,11.74
2023-05-14T01:53:14.810Z,11.72
2023-05-14T01:56:43.443Z,11.68
2023-05-14T02:00:14.408Z,11.66
2023-05-14T02:03:40.847Z,11.62
2023-05-14T02:07:08.442Z,11.60
2023-05-14T02:10:34.884Z,11.59
2023-05-14T02:14:01.544Z,11.56
2023-05-14T02:17:29.167Z,11.52
2023-05-14T02:20:58.324Z,11.47
2023-05-14T02:24:25.491Z,11.41
2023-05-14T02:27:52.400Z,11.38
2023-05-14T02:31:20.002Z,11.37
2023-05-14T02:34:46.792Z,11.38
2023-05-14T02:38:13.719Z,11.42
2023-05-14T02:41:40.588Z,11.45
2023-05-14T02:45:08.677Z,11.45
2023-05-14T02:48:36.245Z,11.41
2023-05-14T02:52:03.819Z,11.37
2023-05-14T02:55:31.083Z,11.33
2023-05-14T02:58:58.558Z,11.30
2023-05-14T03:02:26.759Z,11.26
2023-05-14T03:05:55.084Z,11.20
2023-05-14T03:09:22.249Z,11.14
2023-05-14T03:12:51.020Z,11.06
2023-05-14T03:16:18.724Z,11.02
2023-05-14T03:19:45.516Z,10.98
2023-05-14T03:23:12.598Z,10.96
2023-05-14T03:26:39.653Z,10.93
2023-05-14T03:30:08.727Z,10.90
2023-05-14T03:33:35.619Z,10.89
2023-05-14T03:37:02.213Z,10.88
2023-05-14T03:40:28.949Z,10.89
2023-05-14T03:43:55.846Z,10.91
2023-05-14T03:47:22.595Z,10.95
2023-05-14T03:50:49.678Z,10.98
2023-05-14T03:54:16.589Z,11.02
2023-05-14T03:57:44.012Z,11.07
2023-05-14T04:01:10.692Z,11.11
2023-05-14T04:04:37.756Z,11.17
2023-05-14T04:08:05.331Z,11.23
2023-05-14T04:11:32.382Z,11.33
2023-05-14T04:15:01.225Z,11.42
2023-05-14T04:18:28.627Z,11.54
2023-05-14T04:21:56.102Z,11.68
2023-05-14T04:25:24.308Z,11.83
2023-05-14T04:28:51.268Z,12.00
2023-05-14T04:32:18.871Z,12.16
2023-05-14T04:35:46.557Z,12.30
2023-05-14T04:39:13.707Z,12.41
2023-05-14T04:42:41.260Z,12.53
2023-05-14T04:46:09.738Z,12.63
2023-05-14T04:49:39.470Z,12.73
2023-05-14T04:53:06.334Z,12.82
2023-05-14T04:56:33.116Z,12.91
2023-05-14T05:00:00.622Z,13.00
2023-05-14T05:03:27.480Z,13.08
2023-05-14T05:06:54.598Z,13.15
2023-05-14T05:10:21.611Z,13.24
2023-05-14T05:13:48.485Z,13.32
2023-05-14T05:17:15.248Z,13.41
2023-05-14T05:20:41.835Z,13.52
2023-05-14T05:24:09.457Z,13.62
2023-05-14T05:27:36.508Z,13.73
2023-05-14T05:31:03.470Z,13.85
2023-05-14T05:34:30.158Z,13.96
2023-05-14T05:38:00.460Z,14.08
2023-05-14T05:41:30.367Z,14.22
2023-05-14T05:44:57.627Z,14.35
2023-05-14T05:48:24.770Z,14.50
2023-05-14T05:51:52.050Z,14.66
2023-05-14T05:55:19.626Z,14.81
2023-05-14T05:58:47.189Z,14.94
2023-05-14T06:02:14.333Z,15.08
2023-05-14T06:05:42.112Z,15.20
2023-05-14T06:09:09.348Z,15.35
2023-05-14T06:12:36.567Z,15.54
2023-05-14T06:16:03.851Z,15.72
2023-05-14T06:19:31.142Z,15.90
2023-05-14T06:22:58.349Z,16.09
2023-05-14T06:26:26.365Z,16.27
2023-05-14T06:29:53.544Z,16.44
2023-05-14T06:33:21.461Z,16.61
2023-05-14T06:36:48.402Z,16.81
2023-05-14T06:40:16.964Z,16.97
2023-05-14T06:43:44.228Z,17.09
2023-05-14T06:47:12.033Z,17.18
2023-05-14T06:50:38.648Z,17.26
2023-05-14T06:54:05.736Z,17.34
2023-05-14T06:57:34.276Z,17.42
2023-05-14T07:01:01.855Z,17.54
2023-05-14T07:04:28.718Z,17.65
2023-05-14T07:07:55.850Z,17.75
2023-05-14T07:11:23.702Z,17.89
2023-05-14T07:14:53.573Z,18.06
2023-05-14T07:18:20.500Z,18.15
2023-05-14T07:21:47.341Z,18.13
2023-05-14T07:25:14.418Z,18.19
2023-05-14T07:28:41.235Z,18.33
2023-05-14T07:32:08.125Z,18.47
2023-05-14T07:35:35.252Z,18.61
2023-05-14T07:39:02.620Z,18.74
2023-05-14T07:42:36.579Z,18.81
2023-05-14T07:46:04.500Z,18.88
2023-05-14T07:49:31.572Z,18.97
2023-05-14T07:52:58.820Z,19.08
2023-05-14T07:56:26.112Z,19.18
2023-05-14T07:59:53.445Z,19.29
2023-05-14T08:03:21.615Z,19.39
2023-05-14T08:06:49.091Z,19.50
2023-05-14T08:10:16.203Z,19.59
2023-05-14T08:13:45.262Z,19.69
2023-05-14T08:17:12.315Z,19.77
2023-05-14T08:20:40.127Z,19.87
2023-05-14T08:24:07.680Z,19.98
2023-05-14T08:27:35.569Z,20.08
2023-05-14T08:31:06.339Z,20.18
2023-05-14T08:34:34.056Z,20.32
2023-05-14T08:38:01.547Z,20.48
2023-05-14T08:41:29.590Z,20.60
2023-05-14T08:45:02.463Z,20.72
2023-05-14T08:48:33.835Z,20.86
2023-05-14T08:52:02.124Z,20.96
2023-05-14T08:55:30.024Z,21.04
2023-05-14T08:58:57.150Z,21.13
2023-05-14T09:02:29.076Z,21.26
2023-05-14T09:05:58.667Z,21.41
2023-05-14T09:09:30.042Z,21.54
2023-05-14T09:13:01.362Z,21.70
2023-05-14T09:16:29.852Z,21.85
2023-05-14T09:19:57.583Z,22.01
2023-05-14T09:23:27.022Z,22.13
2023-05-14T09:26:56.445Z,22.12
2023-05-14T09:30:23.457Z,22.02
2023-05-14T09:33:57.754Z,21.90
2023-05-14T09:37:26.496Z,21.86
2023-05-14T09:40:57.096Z,22.07
2023-05-14T09:44:25.082Z,22.27
2023-05-14T09:47:53.673Z,22.34
2023-05-14T09:51:22.418Z,22.40
2023-05-14T09:54:49.980Z,22.61
2023-05-14T09:58:17.143Z,22.79
2023-05-14T10:01:58.782Z,22.83
2023-05-14T10:05:28.801Z,22.79
2023-05-14T10:08:58.487Z,22.74
2023-05-14T10:12:30.700Z,22.84
2023-05-14T10:16:03.495Z,23.07
2023-05-14T10:19:38.045Z,23.14
2023-05-14T10:23:07.769Z,23.13
2023-05-14T10:26:38.825Z,23.08
2023-05-14T10:30:10.502Z,23.00
2023-05-14T10:33:50.903Z,23.11
2023-05-14T10:37:19.603Z,23.40
2023-05-14T10:40:49.076Z,23.71
2023-05-14T10:44:17.618Z,23.99
2023-05-14T10:47:46.896Z,24.06
2023-05-14T10:51:26.720Z,23.96
2023-05-14T10:54:56.102Z,24.07
2023-05-14T10:58:24.093Z,24.27
2023-05-14T11:01:52.018Z,24.43
2023-05-14T11:05:20.322Z,24.44
2023-05-14T11:08:47.270Z,24.37
2023-05-14T11:12:17.685Z,24.30
2023-05-14T11:15:48.538Z,24.24
2023-05-14T11:19:15.872Z,24.12
2023-05-14T11:22:45.047Z,23.90
2023-05-14T11:26:13.095Z,23.66
2023-05-14T11:29:44.979Z,23.42
2023-05-14T11:33:12.187Z,23.25
2023-05-14T11:36:42.559Z,23.16
2023-05-14T11:40:18.291Z,23.15
2023-05-14T11:43:45.620Z,23.20
2023-05-14T11:47:15.993Z,23.24
2023-05-14T11:50:47.610Z,23.26
2023-05-14T11:54:17.294Z,23.22
2023-05-14T11:57:45.224Z,23.14
2023-05-14T12:01:16.786Z,23.04
2023-05-14T12:04:45.305Z,23.02
2023-05-14T12:08:25.017Z,23.26
2023-05-14T12:11:55.664Z,23.57
2023-05-14T12:15:22.553Z,23.81
2023-05-14T12:18:52.556Z,23.84
2023-05-14T12:22:30.862Z,23.89
2023-05-14T12:26:03.089Z,23.99
2023-05-14T12:29:30.072Z,23.96
2023-05-14T12:32:57.333Z,23.93
2023-05-14T12:36:25.058Z,24.02
2023-05-14T12:39:52.270Z,24.04
2023-05-14T12:43:22.220Z,23.98
2023-05-14T12:46:49.265Z,23.86
2023-05-14T12:50:16.771Z,23.72
2023-05-14T12:53:44.381Z,23.58
2023-05-14T12:57:11.738Z,23.53
2023-05-14T13:00:39.351Z,23.56
2023-05-14T13:04:06.910Z,23.66
2023-05-14T13:07:34.456Z,23.70
2023-05-14T13:11:01.138Z,23.77
2023-05-14T13:14:28.868Z,24.25
2023-05-14T13:17:56.033Z,24.46
2023-05-14T13:21:24.877Z,24.43
2023-05-14T13:24:51.870Z,24.33
2023-05-14T13:28:18.845Z,24.26
2023-05-14T13:31:46.350Z,24.20
2023-05-14T13:35:13.719Z,24.21
2023-05-14T13:38:41.549Z,24.18
2023-05-14T13:42:09.336Z,24.11
2023-05-14T13:45:36.965Z,24.05
2023-05-14T13:49:03.919Z,23.99
2023-05-14T13:52:31.244Z,23.97
2023-05-14T13:55:59.298Z,24.04
2023-05-14T13:59:26.250Z,24.42
2023-05-14T14:02:53.119Z,24.70
2023-05-14T14:06:20.199Z,24.86
2023-05-14T14:09:48.606Z,24.85
2023-05-14T14:13:15.809Z,24.80
2023-05-14T14:16:44.026Z,24.70
2023-05-14T14:20:13.007Z,24.61
2023-05-14T14:23:39.592Z,24.64
2023-05-14T14:27:07.445Z,24.62
2023-05-14T14:30:35.994Z,24.59
2023-05-14T14:34:03.148Z,24.54
2023-05-14T14:37:33.163Z,24.52
2023-05-14T14:41:00.561Z,24.65
2023-05-14T14:44:27.583Z,25.04
2023-05-14T14:48:15.184Z,25.40
2023-05-14T14:51:44.650Z,25.67
2023-05-14T14:55:17.367Z,25.97
2023-05-14T14:58:45.646Z,26.33
2023-05-14T15:02:12.904Z,26.52
2023-05-14T15:05:41.066Z,26.61
2023-05-14T15:09:09.460Z,26.80
2023-05-14T15:12:36.968Z,26.69
2023-05-14T15:16:07.218Z,26.51
2023-05-14T15:19:34.884Z,26.23
2023-05-14T15:23:02.020Z,26.01
2023-05-14T15:26:29.301Z,25.80
2023-05-14T15:29:57.573Z,25.57
2023-05-14T15:33:24.583Z,25.38
2023-05-14T15:36:51.702Z,25.22
2023-05-14T15:40:20.225Z,25.06
2023-05-14T15:43:47.458Z,24.86
2023-05-14T15:47:14.308Z,24.68
2023-05-14T15:50:43.521Z,24.56
2023-05-14T15:54:10.712Z,24.46
2023-05-14T15:57:38.789Z,24.37
2023-05-14T16:01:05.733Z,24.28
2023-05-14T16:04:33.782Z,24.22
2023-05-14T16:08:01.931Z,24.19
2023-05-14T16:11:29.507Z,24.14
2023-05-14T16:15:01.517Z,24.04
2023-05-14T16:18:29.609Z,23.94
2023-05-14T16:21:58.809Z,23.85
2023-05-14T16:25:27.313Z,23.76
2023-05-14T16:28:55.125Z,23.66
2023-05-14T16:32:23.200Z,23.60
2023-05-14T16:35:50.704Z,23.53
2023-05-14T16:39:18.802Z,23.46
2023-05-14T16:42:48.513Z,23.38
2023-05-14T16:46:16.275Z,23.31
2023-05-14T16:49:46.409Z,23.25
2023-05-14T16:53:14.357Z,23.19
2023-05-14T16:56:48.448Z,23.12
2023-05-14T17:00:18.385Z,23.06
2023-05-14T17:03:48.908Z,22.99
2023-05-14T17:07:17.926Z,22.92
2023-05-14T17:10:45.286Z,22.88
2023-05-14T17:14:10.703Z,22.83
2023-05-14T17:17:39.256Z,22.80
2023-05-14T17:21:07.937Z,22.76
2023-05-14T17:24:36.669Z,22.70
2023-05-14T17:28:03.685Z,22.65
2023-05-14T17:31:32.451Z,22.60
2023-05-14T17:35:01.760Z,22.53
2023-05-14T17:38:28.843Z,22.43
2023-05-14T17:41:57.073Z,22.31
2023-05-14T17:45:24.160Z,22.22
2023-05-14T17:48:54.671Z,22.12
2023-05-14T17:52:21.604Z,22.03
2023-05-14T17:55:48.269Z,21.93
2023-05-14T17:59:21.156Z,21.81
2023-05-14T18:02:51.335Z,21.72
2023-05-14T18:06:18.581Z,21.61
2023-05-14T18:09:48.888Z,21.53
2023-05-14T18:13:16.451Z,21.42
2023-05-14T18:16:45.386Z,21.32
2023-05-14T18:20:14.488Z,21.20
2023-05-14T18:23:41.531Z,21.10
2023-05-14T18:27:10.055Z,20.98
2023-05-14T18:30:37.949Z,20.87
2023-05-14T18:34:05.089Z,20.75
2023-05-14T18:37:33.021Z,20.64
2023-05-14T18:41:00.797Z,20.53
2023-05-14T18:44:28.653Z,20.42
2023-05-14T18:47:56.904Z,20.31
2023-05-14T18:51:23.796Z,20.20
2023-05-14T18:54:52.586Z,20.09
2023-05-14T18:58:19.348Z,20.01
2023-05-14T19:01:46.323Z,19.92
2023-05-14T19:05:17.520Z,19.82
2023-05-14T19:08:50.414Z,19.73
2023-05-14T19:12:19.246Z,19.64
2023-05-14T19:15:47.187Z,19.54
2023-05-14T19:19:14.769Z,19.46
2023-05-14T19:22:41.760Z,19.37
2023-05-14T19:26:09.090Z,19.29
2023-05-14T19:29:37.212Z,19.20
2023-05-14T19:33:04.687Z,19.12
2023-05-14T19:36:33.448Z,19.05
2023-05-14T19:40:00.307Z,18.99
2023-05-14T19:43:30.134Z,18.91
2023-05-14T19:46:57.134Z,18.83
2023-05-14T19:50:24.521Z,18.75
2023-05-14T19:53:53.225Z,18.67
2023-05-14T19:57:20.528Z,18.58
2023-05-14T20:00:51.364Z,18.46
2023-05-14T20:04:18.467Z,18.32
2023-05-14T20:07:49.334Z,18.19
2023-05-14T20:11:18.216Z,18.08
2023-05-14T20:14:45.888Z,17.98
2023-05-14T20:18:17.543Z,17.88
2023-05-14T20:21:45.221Z,17.81
2023-05-14T20:25:13.965Z,17.74
2023-05-14T20:28:43.628Z,17.67
2023-05-14T20:32:12.804Z,17.62
2023-05-14T20:35:41.027Z,17.53
2023-05-14T20:39:07.785Z,17.42
2023-05-14T20:42:36.634Z,17.34
2023-05-14T20:46:09.407Z,17.27
2023-05-14T20:49:38.449Z,17.19
2023-05-14T20:53:07.452Z,17.15
2023-05-14T20:56:36.654Z,17.12
2023-05-14T21:00:07.310Z,17.08
2023-05-14T21:03:44.707Z,17.02
2023-05-14T21:07:12.186Z,16.96
2023-05-14T21:10:39.833Z,16.86
2023-05-14T21:14:07.344Z,16.78
2023-05-14T21:17:36.075Z,16.75
2023-05-14T21:21:05.560Z,16.70
2023-05-14T21:24:35.424Z,16.65
2023-05-14T21:28:05.018Z,16.57
2023-05-14T21:31:32.226Z,16.53
2023-05-14T21:35:00.058Z,16.49
2023-05-14T21:38:27.858Z,16.42
2023-05-14T21:41:55.988Z,16.35
2023-05-14T21:45:24.083Z,16.27
2023-05-14T21:48:51.805Z,16.23
2023-05-14T21:52:19.103Z,16.19
2023-05-14T21:55:46.707Z,16.14
2023-05-14T21:59:13.970Z,16.11
2023-05-14T22:02:41.297Z,16.07
2023-05-14T22:06:09.141Z,16.03
2023-05-14T22:09:36.067Z,15.97
2023-05-14T22:13:02.820Z,15.94
2023-05-14T22:16:29.626Z,15.88
2023-05-14T22:19:56.433Z,15.86
2023-05-14T22:23:23.864Z,15.83
2023-05-14T22:26:51.134Z,15.80
2023-05-14T22:30:18.643Z,15.77
2023-05-14T22:33:48.231Z,15.74
2023-05-14T22:37:14.945Z,15.69
2023-05-14T22:40:42.103Z,15.66
2023-05-14T22:44:10.196Z,15.63
2023-05-14T22:47:38.805Z,15.60
2023-05-14T22:51:06.640Z,15.56
2023-05-14T22:54:33.864Z,15.53
2023-05-14T22:58:01.129Z,15.50
2023-05-14T23:01:28.484Z,15.47
2023-05-14T23:04:55.879Z,15.45
2023-05-14T23:08:23.796Z,15.42
2023-05-14T23:11:50.940Z,15.39
2023-05-14T23:15:17.904Z,15.36
2023-05-14T23:18:44.611Z,15.32
2023-05-14T23:22:11.819Z,15.29
2023-05-14T23:25:38.632Z,15.27
2023-05-14T23:29:06.240Z,15.24
2023-05-14T23:32:33.243Z,15.21
2023-05-14T23:36:00.372Z,15.19
2023-05-14T23:39:27.488Z,15.17
2023-05-14T23:42:56.491Z,15.15
2023-05-14T23:46:24.345Z,15.14
2023-05-14T23:49:51.686Z,15.13
2023-05-14T23:53:19.863Z,15.12
2023-05-14T23:56:47.413Z,15.11
